Terminal Aerodrome Forecast
Issued by NWS

Home | Current Version | Previous Version | Text Only | Print | Product List | Glossary On
Versions: 1 2 3 4 5 6 7 8 9 10 11 12 13 14 15
070
FTUS42 KMLB 240541 CCA
TAFSUA
TAF COR
KSUA 240541Z 2406/2506 19004KT P6SM SCT035 BKN070
     FM241500 19007KT P6SM VCSH BKN035
     FM242100 16007KT P6SM VCTS SCT035CB BKN050
     FM250500 25005KT P6SM SCT050 BKN250=

USA.gov is the U.S. government's official web portal to all federal, state and local government web resources and services.